createdAt,value
2022-08-19T00:04:42.186Z,100957.94
2022-08-19T00:09:43.726Z,100950.47
2022-08-19T00:14:45.256Z,100947.44
2022-08-19T00:19:46.821Z,100941.81
2022-08-19T00:24:50.912Z,100934.25
2022-08-19T00:29:52.965Z,100933.00
2022-08-19T00:34:54.582Z,100932.38
2022-08-19T00:39:56.916Z,100919.66
2022-08-19T00:44:58.668Z,100902.72
2022-08-19T00:50:00.269Z,100898.88
2022-08-19T00:55:01.977Z,100894.22
2022-08-19T01:00:06.235Z,100900.44
2022-08-19T01:05:09.568Z,100902.63
2022-08-19T01:10:13.560Z,100892.28
2022-08-19T01:15:17.413Z,100888.66
2022-08-19T01:20:22.175Z,100879.81
2022-08-19T01:25:36.659Z,100873.09
2022-08-19T01:30:44.204Z,100874.06
2022-08-19T01:35:46.071Z,100884.53
2022-08-19T01:40:47.663Z,100876.34
2022-08-19T01:45:50.046Z,100880.28
2022-08-19T01:50:52.497Z,100879.09
2022-08-19T01:55:54.014Z,100880.75
2022-08-19T02:00:55.535Z,100883.75
2022-08-19T02:05:58.518Z,100879.41
2022-08-19T02:11:00.045Z,100873.94
2022-08-19T02:16:01.555Z,100867.84
2022-08-19T02:21:05.936Z,100877.44
2022-08-19T02:26:07.448Z,100874.66
2022-08-19T02:31:16.419Z,100879.34
2022-08-19T02:36:21.087Z,100873.22
2022-08-19T02:41:26.858Z,100881.63
2022-08-19T02:46:30.737Z,100877.06
2022-08-19T02:51:34.442Z,100882.59
2022-08-19T02:56:36.933Z,100878.16
2022-08-19T03:01:40.609Z,100875.28
2022-08-19T03:06:44.233Z,100879.81
2022-08-19T03:11:46.328Z,100884.38
2022-08-19T03:16:51.395Z,100887.25
2022-08-19T03:21:52.943Z,100881.97
2022-08-19T03:26:58.676Z,100881.13
2022-08-19T03:32:01.896Z,100876.22
2022-08-19T03:37:08.274Z,100874.06
2022-08-19T03:42:38.643Z,100866.16
2022-08-19T03:47:33.291Z,100868.06
2022-08-19T03:52:34.813Z,100864.81
2022-08-19T03:57:36.324Z,100876.47
2022-08-19T04:02:37.832Z,100882.88
2022-08-19T04:07:39.349Z,100882.47
2022-08-19T04:12:40.858Z,100885.44
2022-08-19T04:17:42.380Z,100887.22
2022-08-19T04:22:43.904Z,100883.03
2022-08-19T04:27:47.300Z,100871.16
2022-08-19T04:32:48.869Z,100877.72
2022-08-19T04:37:50.410Z,100877.38
2022-08-19T04:42:52.193Z,100878.78
2022-08-19T04:48:19.542Z,100881.03
2022-08-19T04:53:18.608Z,100868.75
2022-08-19T04:58:20.136Z,100853.72
2022-08-19T05:03:21.718Z,100865.41
2022-08-19T05:08:31.513Z,100871.88
2022-08-19T05:13:33.675Z,100855.72
2022-08-19T05:18:53.478Z,100864.94
2022-08-19T05:23:54.997Z,100863.16
2022-08-19T05:28:56.533Z,100853.72
2022-08-19T05:33:59.459Z,100862.13
2022-08-19T05:39:00.970Z,100864.56
2022-08-19T05:44:06.814Z,100861.19
2022-08-19T05:49:08.449Z,100878.50
2022-08-19T05:54:09.961Z,100879.53
2022-08-19T05:59:12.273Z,100887.47
2022-08-19T06:04:14.611Z,100893.00
2022-08-19T06:09:16.122Z,100887.03
2022-08-19T06:14:19.460Z,100880.06
2022-08-19T06:19:30.787Z,100881.75
2022-08-19T06:24:32.747Z,100893.25
2022-08-19T06:29:34.888Z,100888.69
2022-08-19T06:34:36.409Z,100897.81
2022-08-19T06:39:39.504Z,100885.38
2022-08-19T06:44:43.365Z,100874.66
2022-08-19T06:49:45.139Z,100886.28
2022-08-19T06:54:56.427Z,100896.03
2022-08-19T06:59:58.307Z,100899.50
2022-08-19T07:05:02.286Z,100894.81
2022-08-19T07:10:06.179Z,100889.78
2022-08-19T07:15:10.827Z,100896.31
2022-08-19T07:20:12.614Z,100905.91
2022-08-19T07:25:14.257Z,100907.81
2022-08-19T07:30:15.781Z,100914.09
2022-08-19T07:35:20.316Z,100904.94
2022-08-19T07:40:21.914Z,100907.41
2022-08-19T07:45:23.428Z,100898.81
2022-08-19T07:50:24.937Z,100910.91
2022-08-19T07:55:41.763Z,100910.44
2022-08-19T08:00:45.701Z,100927.13
2022-08-19T08:06:06.003Z,100934.31
2022-08-19T08:11:07.680Z,100940.28
2022-08-19T08:16:10.237Z,100943.88
2022-08-19T08:21:15.573Z,100948.81
2022-08-19T08:26:19.358Z,100944.28
2022-08-19T08:31:21.096Z,100949.44
2022-08-19T08:36:22.611Z,100953.75
2022-08-19T08:41:45.757Z,100960.72
2022-08-19T08:46:49.545Z,100973.59
2022-08-19T08:52:04.230Z,100969.94
2022-08-19T08:57:13.792Z,100975.13
2022-08-19T09:02:15.307Z,100973.34
2022-08-19T09:07:48.448Z,100973.22
2022-08-19T09:12:58.836Z,100986.09
2022-08-19T09:18:02.702Z,100988.91
2022-08-19T09:23:04.429Z,100995.31
2022-08-19T09:28:22.075Z,101000.63
2022-08-19T09:33:30.116Z,101003.41
2022-08-19T09:38:31.822Z,101003.25
2022-08-19T09:43:44.481Z,101008.75
2022-08-19T09:48:49.803Z,101013.06
2022-08-19T09:53:51.769Z,101015.16
2022-08-19T09:58:54.512Z,101001.91
2022-08-19T10:03:57.258Z,100994.06
2022-08-19T10:08:58.903Z,100985.44
2022-08-19T10:14:01.462Z,100979.34
2022-08-19T10:19:03.803Z,100976.25
2022-08-19T10:24:09.361Z,100984.28
2022-08-19T10:29:12.643Z,100980.28
2022-08-19T10:34:26.845Z,100997.00
2022-08-19T10:39:42.461Z,100983.69
2022-08-19T10:44:45.096Z,100974.84
2022-08-19T10:50:05.003Z,100971.94
2022-08-19T10:55:25.205Z,100975.41
2022-08-19T11:00:32.429Z,100973.66
2022-08-19T11:05:36.462Z,100973.00
2022-08-19T11:10:46.093Z,100971.09
2022-08-19T11:16:06.731Z,100966.66
2022-08-19T11:21:19.953Z,100964.38
2022-08-19T11:26:21.873Z,100963.66
2022-08-19T11:31:28.910Z,100961.13
2022-08-19T11:36:30.890Z,100953.66
2022-08-19T11:41:32.424Z,100957.75
2022-08-19T11:46:34.242Z,100952.59
2022-08-19T11:51:35.764Z,100960.44
2022-08-19T11:56:38.246Z,100957.44
2022-08-19T12:01:41.823Z,100957.56
2022-08-19T12:06:43.410Z,100959.34
2022-08-19T12:11:45.012Z,100956.06
2022-08-19T12:16:49.079Z,100953.81
2022-08-19T12:21:56.368Z,100953.16
2022-08-19T12:27:00.934Z,100957.22
2022-08-19T12:32:05.184Z,100950.88
2022-08-19T12:37:06.745Z,100949.22
2022-08-19T12:42:09.434Z,100952.97
2022-08-19T12:47:12.527Z,100951.81
2022-08-19T12:52:16.943Z,100948.94
2022-08-19T12:57:32.638Z,100947.66
2022-08-19T13:02:38.885Z,100946.16
2022-08-19T13:07:41.103Z,100937.31
2022-08-19T13:12:43.502Z,100932.97
2022-08-19T13:17:45.067Z,100936.47
2022-08-19T13:22:47.388Z,100943.16
2022-08-19T13:27:49.295Z,100932.31
2022-08-19T13:33:09.459Z,100940.63
2022-08-19T13:38:11.907Z,100946.81
2022-08-19T13:43:22.974Z,100928.13
2022-08-19T13:48:27.171Z,100929.50
2022-08-19T13:53:28.690Z,100918.97
2022-08-19T13:58:30.458Z,100926.13
2022-08-19T14:03:32.671Z,100920.97
2022-08-19T14:08:34.214Z,100921.16
2022-08-19T14:13:35.800Z,100919.47
2022-08-19T14:18:37.525Z,100912.78
2022-08-19T14:23:39.064Z,100912.78
2022-08-19T14:28:42.663Z,100914.13
2022-08-19T14:33:44.194Z,100908.06
2022-08-19T14:38:45.734Z,100913.28
2022-08-19T14:43:48.282Z,100897.63
2022-08-19T14:48:51.635Z,100888.56
2022-08-19T14:53:54.250Z,100887.13
2022-08-19T14:58:55.966Z,100891.56
2022-08-19T15:03:57.527Z,100891.81
2022-08-19T15:09:04.090Z,100886.88
2022-08-19T15:14:06.403Z,100885.19
2022-08-19T15:19:07.955Z,100889.97
2022-08-19T15:24:10.141Z,100892.09
2022-08-19T15:29:15.385Z,100897.16
2022-08-19T15:34:17.818Z,100881.72
2022-08-19T15:39:19.803Z,100876.91
2022-08-19T15:44:22.200Z,100884.25
2022-08-19T15:49:23.720Z,100874.38
2022-08-19T15:54:25.332Z,100871.75
2022-08-19T15:59:47.404Z,100876.50
2022-08-19T16:05:07.577Z,100874.66
2022-08-19T16:10:26.093Z,100873.53
2022-08-19T16:15:30.496Z,100888.66
2022-08-19T16:20:32.045Z,100884.16
2022-08-19T16:25:34.771Z,100887.38
2022-08-19T16:30:39.831Z,100897.03
2022-08-19T16:35:41.340Z,100892.19
2022-08-19T16:40:46.693Z,100885.59
2022-08-19T16:45:53.044Z,100894.75
2022-08-19T16:50:54.554Z,100910.78
2022-08-19T16:55:57.438Z,100900.97
2022-08-19T17:01:03.758Z,100911.09
2022-08-19T17:06:28.693Z,100909.53
2022-08-19T17:11:31.152Z,100904.66
2022-08-19T17:16:34.811Z,100903.28
2022-08-19T17:21:37.575Z,100907.78
2022-08-19T17:26:39.162Z,100914.63
2022-08-19T17:31:40.719Z,100921.72
2022-08-19T17:36:42.265Z,100924.84
2022-08-19T17:41:44.190Z,100917.03
2022-08-19T17:46:46.681Z,100911.31
2022-08-19T17:51:49.490Z,100914.66
2022-08-19T17:56:51.015Z,100912.31
2022-08-19T18:01:54.470Z,100908.75
2022-08-19T18:06:56.221Z,100912.03
2022-08-19T18:11:57.836Z,100904.63
2022-08-19T18:16:59.443Z,100897.56
2022-08-19T18:22:00.996Z,100897.72
2022-08-19T18:27:02.366Z,100894.91
2022-08-19T18:32:04.176Z,100900.59
2022-08-19T18:37:05.696Z,100897.25
2022-08-19T18:42:25.619Z,100908.69
2022-08-19T18:47:45.703Z,100903.72
2022-08-19T18:52:47.548Z,100916.41
2022-08-19T18:57:50.689Z,100922.25
2022-08-19T19:02:54.624Z,100907.13
2022-08-19T19:07:56.265Z,100910.41
2022-08-19T19:12:57.903Z,100928.00
2022-08-19T19:17:59.461Z,100936.94
2022-08-19T19:23:02.406Z,100940.16
2022-08-19T19:28:03.928Z,100936.66
2022-08-19T19:33:05.863Z,100947.56
2022-08-19T19:38:07.383Z,100955.66
2022-08-19T19:43:08.943Z,100955.84
2022-08-19T19:48:12.981Z,100951.75
2022-08-19T19:53:17.247Z,100956.09
2022-08-19T19:58:18.803Z,100951.22
2022-08-19T20:03:24.550Z,100942.72
2022-08-19T20:08:45.844Z,100941.75
2022-08-19T20:13:47.354Z,100958.72
2022-08-19T20:18:48.946Z,100954.81
2022-08-19T20:24:09.216Z,100960.72
2022-08-19T20:29:13.391Z,100949.47
2022-08-19T20:34:22.703Z,100952.91
2022-08-19T20:39:24.086Z,100953.75
2022-08-19T20:44:25.761Z,100951.00
2022-08-19T20:49:27.768Z,100951.91
2022-08-19T20:54:29.852Z,100958.81
2022-08-19T20:59:31.419Z,100957.94
2022-08-19T21:04:33.059Z,100960.69
2022-08-19T21:09:35.876Z,100960.28
2022-08-19T21:14:41.034Z,100961.41
2022-08-19T21:19:42.627Z,100965.19
2022-08-19T21:24:44.155Z,100972.06
2022-08-19T21:29:45.711Z,100962.00
2022-08-19T21:34:48.139Z,100946.13
2022-08-19T21:39:49.766Z,100937.50
2022-08-19T21:44:51.460Z,100939.31
2022-08-19T21:49:52.984Z,100941.72
2022-08-19T21:54:55.971Z,100947.31
2022-08-19T21:59:57.519Z,100950.00
2022-08-19T22:04:59.036Z,100949.75
2022-08-19T22:10:00.548Z,100944.69
2022-08-19T22:15:02.319Z,100946.56
2022-08-19T22:20:05.646Z,100948.34
2022-08-19T22:25:29.988Z,100968.50
2022-08-19T22:30:34.078Z,100972.91
2022-08-19T22:35:37.770Z,100966.16
2022-08-19T22:40:41.274Z,100955.25
2022-08-19T22:45:43.245Z,100962.34
2022-08-19T22:51:05.396Z,100973.28
2022-08-19T22:56:09.931Z,100971.56
2022-08-19T23:01:27.539Z,100979.13
2022-08-19T23:06:33.550Z,100989.78
2022-08-19T23:11:41.591Z,100988.78
2022-08-19T23:16:50.507Z,100987.72
2022-08-19T23:21:52.733Z,100982.88
2022-08-19T23:27:12.867Z,100977.88
2022-08-19T23:32:16.129Z,100973.66
2022-08-19T23:37:17.829Z,100980.16
2022-08-19T23:42:20.491Z,100988.38
2022-08-19T23:47:22.058Z,100977.19
2022-08-19T23:52:23.677Z,100973.03
2022-08-19T23:57:25.197Z,100975.59
